Cincinnati Municipal Airport Lunken Field
KLUK : now visible

Airfield :











YOU CAN JOIN US ON...

 
LOGIN :

Register | Disclaimer

   EN    FR    IT 

 









Legend :    VFR   Marginal VFR   IFR   Intensive IFR   Very Intensive IFR
Visi :
Ceiling :
>= 8 km
>= 3000ft
5 to 8 km
1000 to 3000 ft
1500m to 5 km
500 to 1000 ft
800 to 1500m
200 to 500 ft
< 800m
< 200 ft
Symbols :   Thunderstorms  Fog  Heavy snow  Heavy precipitations  Wind > 20 kt






- Airport Elevation : 483 ft
- IATA code : LUK


KLUK - Cincinnati Municipal Lunken Field

CURRENT METAR :
  • 251953Z 06008KT 4SM RA BR BKN009 OVC028 01/00 A2987 RMK AO2 PRESFR SLP119 P0004 T00110000

EXPIRED METARs :
  • 251900Z 04008KT 3SM RA BR OVC009 01/M01 A2990 RMK AO2 P0001 T00061006
  • 251753Z 02007KT 2SM RA BR OVC009 00/M01 A2995 RMK AO2 SLP144 P0013 60014 T00001011 10006 20000 56032
  • 251653Z 05007KT 3SM RA BR OVC009 00/M01 A2995 RMK AO2 SLP146 P0001 T00001011

TAF KLUK
Valid from the 25 at 18:00 until the 26 at 18:00 UTC


251752Z 2518/2618 08008KT 4SM -RA BR OVC008
TEMPO 2518/2519 1 1/2SM RA BR
FM260500 08003KT 4SM BR OVC008
FM261500 23003KT P6SM OVC011
KZID FIR / North America



MET'MAP, your aeronautical weather chart ! - Copyright ORBIFLY December 2007 - Disclaimer

ORBIFLY MET'MAP TEAM :

Programming & Development : Alexandra Zaïnal
Concept & original design : Baudouin d'Aumeries
Assistance for programming : Marc-Olivier Méhu
Technical & hardware support : Manuel Goepfert

Contact : metmap@orbifly.com




SOURCES & CREDITS :

   NOAA       Earth
Advisory